Time;durP1;ratioP1;P1;durP2;ratioP2;P2;SDS_P1;SDS_P2;PMS_P1;PMS_P2;Temp;Humidity;BMP_temperature;BMP_pressure;BME280_temperature;BME280_humidity;BME280_pressure;Samples;Min_cycle;Max_cycle;Signal;HPM_P1;HPM_P2
2022/03/22 00:02:04;;;;;;;24.33;13.18;;;20.50;50.90;;;;;;5068218;28;20128;-70
2022/03/22 00:04:30;;;;;;;20.10;11.48;;;20.50;50.90;;;;;;5077764;28;20041;-70
2022/03/22 00:06:57;;;;;;;26.40;12.20;;;20.40;50.90;;;;;;5086446;28;20094;-70
2022/03/22 00:09:23;;;;;;;18.45;11.57;;;20.50;51.00;;;;;;5097875;28;20036;-69
2022/03/22 00:11:50;;;;;;;24.00;12.82;;;20.30;51.10;;;;;;5086154;28;20048;-70
2022/03/22 00:14:17;;;;;;;23.23;12.07;;;20.30;51.10;;;;;;5077607;28;20071;-70
2022/03/22 00:16:46;;;;;;;20.30;12.30;;;20.30;51.20;;;;;;5073707;28;20127;-70
2022/03/22 00:19:13;;;;;;;21.83;12.10;;;20.20;51.10;;;;;;5092640;28;20064;-69
2022/03/22 00:21:40;;;;;;;23.30;13.43;;;20.30;52.60;;;;;;5085621;28;20116;-69
2022/03/22 00:24:06;;;;;;;20.52;12.60;;;20.20;52.70;;;;;;5062011;28;20041;-69
2022/03/22 00:26:32;;;;;;;20.17;12.07;;;20.20;53.60;;;;;;5097466;28;20037;-69
2022/03/22 00:28:59;;;;;;;23.60;12.85;;;20.30;54.10;;;;;;5096740;28;20039;-69
2022/03/22 00:31:30;;;;;;;24.50;12.82;;;20.20;54.00;;;;;;5088894;28;20687;-69
2022/03/22 00:33:56;;;;;;;28.42;12.23;;;20.20;54.10;;;;;;5076206;28;20127;-69
2022/03/22 00:36:23;;;;;;;27.20;13.40;;;20.40;54.40;;;;;;5075252;28;20040;-69
2022/03/22 00:38:49;;;;;;;25.98;12.55;;;20.20;54.40;;;;;;5087750;28;20070;-69
2022/03/22 00:41:17;;;;;;;29.23;12.98;;;20.20;54.40;;;;;;5096659;28;20048;-69
2022/03/22 00:43:44;;;;;;;25.63;13.13;;;20.30;54.50;;;;;;5057452;28;20037;-69
2022/03/22 00:46:11;;;;;;;22.08;11.85;;;20.30;54.40;;;;;;5071687;28;20044;-69
2022/03/22 00:48:39;;;;;;;21.83;12.07;;;20.30;54.40;;;;;;5072245;28;20065;-69
2022/03/22 00:51:05;;;;;;;23.75;12.93;;;20.20;54.50;;;;;;5083770;28;20060;-69
2022/03/22 00:53:32;;;;;;;27.05;13.15;;;20.30;54.80;;;;;;5066179;28;20045;-69
2022/03/22 00:56:01;;;;;;;28.95;14.18;;;20.20;54.80;;;;;;5056946;28;20067;-69
2022/03/22 00:58:27;;;;;;;25.83;13.45;;;20.10;55.00;;;;;;5055546;28;20033;-69
2022/03/22 01:00:54;;;;;;;30.55;14.90;;;20.20;55.10;;;;;;5061683;28;20072;-69
2022/03/22 01:03:20;;;;;;;23.83;13.40;;;20.10;55.40;;;;;;5081908;28;20029;-69
2022/03/22 01:05:47;;;;;;;23.15;13.02;;;20.10;55.40;;;;;;5073964;28;20066;-69
2022/03/22 01:08:14;;;;;;;27.17;13.40;;;20.00;55.50;;;;;;5096597;28;20057;-69
2022/03/22 01:10:44;;;;;;;25.50;12.52;;;20.10;55.80;;;;;;5093545;28;20050;-69
2022/03/22 01:13:13;;;;;;;29.55;14.52;;;20.00;55.80;;;;;;5080354;28;20029;-69
2022/03/22 01:15:42;;;;;;;23.70;13.38;;;20.00;55.70;;;;;;5087724;28;20054;-69
2022/03/22 01:18:10;;;;;;;25.05;14.52;;;20.00;55.60;;;;;;5081070;28;20067;-69
2022/03/22 01:20:40;;;;;;;24.00;13.25;;;20.00;55.40;;;;;;5089813;28;20037;-69
2022/03/22 01:23:09;;;;;;;25.45;13.98;;;20.00;55.30;;;;;;5096769;28;20036;-69
2022/03/22 01:25:36;;;;;;;27.77;13.93;;;20.10;55.50;;;;;;5096734;28;20032;-69
2022/03/22 01:28:04;;;;;;;29.58;14.50;;;19.90;55.50;;;;;;5092887;28;20032;-69
2022/03/22 01:30:32;;;;;;;27.45;14.95;;;20.00;55.70;;;;;;5082095;28;20045;-69
2022/03/22 01:32:58;;;;;;;26.75;13.15;;;19.90;55.80;;;;;;5072600;28;20037;-69
2022/03/22 01:35:26;;;;;;;20.83;12.93;;;20.00;55.60;;;;;;5074156;28;20055;-69
2022/03/22 01:37:54;;;;;;;28.15;14.15;;;20.10;55.70;;;;;;5076424;28;20032;-69
2022/03/22 01:40:23;;;;;;;31.88;14.30;;;20.00;55.60;;;;;;5074955;28;20041;-69
2022/03/22 01:42:49;;;;;;;30.35;13.55;;;20.10;55.50;;;;;;5076316;28;20064;-69
2022/03/22 01:45:17;;;;;;;27.45;14.10;;;20.10;55.50;;;;;;5076267;28;20063;-69
2022/03/22 01:47:45;;;;;;;26.30;13.43;;;20.00;55.40;;;;;;5075185;28;20048;-69
2022/03/22 01:50:15;;;;;;;29.73;14.50;;;20.00;55.30;;;;;;5075972;28;20064;-69
2022/03/22 01:52:43;;;;;;;25.23;14.10;;;19.90;55.40;;;;;;5075228;28;20028;-68
2022/03/22 01:55:13;;;;;;;27.63;13.85;;;19.90;55.50;;;;;;5055984;28;20045;-68
2022/03/22 01:57:40;;;;;;;28.23;15.00;;;20.00;55.60;;;;;;5070969;28;20033;-68
2022/03/22 02:00:15;;;;;;;29.02;14.00;;;19.90;55.80;;;;;;5075436;28;20056;-69
2022/03/22 02:08:16;;;;;;;23.52;12.85;;;19.80;56.20;;;;;;5061947;28;20034;-68
2022/03/22 02:10:45;;;;;;;25.50;12.75;;;19.80;56.20;;;;;;5081615;28;20127;-69
2022/03/22 02:13:12;;;;;;;25.88;14.05;;;19.80;56.40;;;;;;5096158;28;20028;-69
2022/03/22 02:15:38;;;;;;;23.77;13.85;;;19.70;56.40;;;;;;5092061;28;20052;-68
2022/03/22 02:18:04;;;;;;;25.15;14.10;;;19.80;56.30;;;;;;5060784;28;20072;-69
2022/03/22 02:20:32;;;;;;;22.30;13.32;;;19.70;56.20;;;;;;5077567;28;20036;-69
2022/03/22 02:23:05;;;;;;;27.10;14.38;;;19.80;56.10;;;;;;5093070;28;20048;-69
2022/03/22 02:25:38;;;;;;;26.15;14.15;;;19.90;56.10;;;;;;5096189;28;20078;-69
2022/03/22 02:28:04;;;;;;;25.48;14.43;;;19.80;56.10;;;;;;5076492;28;20034;-68
2022/03/22 02:30:32;;;;;;;25.40;13.73;;;19.80;56.30;;;;;;5059998;28;20041;-69
2022/03/22 02:33:03;;;;;;;24.02;13.98;;;19.70;56.40;;;;;;5081419;28;20041;-69
2022/03/22 02:35:30;;;;;;;37.22;14.77;;;19.80;56.50;;;;;;5075535;28;20040;-69
2022/03/22 02:37:57;;;;;;;26.33;14.85;;;19.80;56.40;;;;;;5086093;28;20052;-69
2022/03/22 02:40:27;;;;;;;25.15;14.20;;;19.70;56.30;;;;;;5075610;28;20049;-69
2022/03/22 02:42:54;;;;;;;26.33;13.95;;;19.80;56.20;;;;;;5075766;28;20041;-69
2022/03/22 02:45:22;;;;;;;29.50;15.13;;;19.80;56.10;;;;;;5077923;28;20075;-68
2022/03/22 02:47:49;;;;;;;28.92;14.70;;;19.80;56.10;;;;;;5088398;28;20047;-69
2022/03/22 02:50:18;;;;;;;25.88;14.55;;;19.80;56.10;;;;;;5084295;28;20036;-69
2022/03/22 02:52:45;;;;;;;25.88;14.25;;;19.80;56.00;;;;;;5073740;28;20037;-68
2022/03/22 02:55:12;;;;;;;24.60;15.45;;;19.80;56.10;;;;;;5094802;28;20045;-69
2022/03/22 02:57:39;;;;;;;26.10;13.82;;;19.70;56.20;;;;;;5095534;28;20108;-68
2022/03/22 03:00:09;;;;;;;22.67;13.68;;;19.70;56.30;;;;;;5098162;28;20048;-68
2022/03/22 03:02:49;;;;;;;27.08;13.63;;;19.70;56.40;;;;;;5072321;28;20048;-68
2022/03/22 03:05:16;;;;;;;24.88;13.85;;;19.70;56.60;;;;;;5072078;28;20037;-69
2022/03/22 03:07:42;;;;;;;26.63;12.65;;;19.70;56.70;;;;;;5076936;28;20033;-69
2022/03/22 03:10:09;;;;;;;27.27;14.00;;;19.60;56.80;;;;;;5075372;28;20108;-69
2022/03/22 03:12:36;;;;;;;28.48;14.90;;;19.50;56.80;;;;;;5076750;28;20045;-69
2022/03/22 03:15:05;;;;;;;26.13;13.63;;;19.60;56.90;;;;;;5084908;28;20048;-68
2022/03/22 03:17:31;;;;;;;25.27;13.75;;;19.50;57.00;;;;;;5074312;28;20043;-68
2022/03/22 03:19:57;;;;;;;28.17;14.00;;;19.40;57.00;;;;;;5074935;28;20045;-69
2022/03/22 03:22:24;;;;;;;25.45;13.50;;;19.60;56.90;;;;;;5076774;28;20090;-69
2022/03/22 03:24:50;;;;;;;25.67;13.60;;;19.50;56.70;;;;;;5078964;28;20061;-68
2022/03/22 03:27:16;;;;;;;27.70;13.20;;;19.50;56.60;;;;;;5074976;28;20048;-68
2022/03/22 03:29:44;;;;;;;25.67;13.30;;;19.60;56.50;;;;;;5075158;28;20037;-69
2022/03/22 03:32:10;;;;;;;27.90;14.15;;;19.50;56.60;;;;;;5079402;28;20112;-69
2022/03/22 03:34:36;;;;;;;24.65;12.65;;;19.60;56.80;;;;;;5083264;28;20036;-69
2022/03/22 03:37:03;;;;;;;25.92;14.07;;;19.50;56.90;;;;;;5083209;28;20040;-68
2022/03/22 03:39:29;;;;;;;30.25;14.10;;;19.60;56.80;;;;;;5091185;28;20054;-69
2022/03/22 03:41:58;;;;;;;25.65;13.13;;;19.60;56.70;;;;;;5077164;28;20658;-69
2022/03/22 03:47:16;;;;;;;30.88;13.63;;;19.60;56.60;;;;;;5083906;28;20040;-69
2022/03/22 03:49:46;;;;;;;24.08;14.02;;;19.60;56.50;;;;;;5061698;28;20044;-68
2022/03/22 03:52:15;;;;;;;24.50;12.25;;;19.50;56.50;;;;;;5058248;28;20140;-68
2022/03/22 03:54:43;;;;;;;22.10;12.13;;;19.70;56.60;;;;;;5058179;28;20068;-68
2022/03/22 03:57:10;;;;;;;23.52;13.20;;;19.60;56.30;;;;;;5057161;28;20052;-68
2022/03/22 03:59:37;;;;;;;24.90;12.85;;;19.60;56.40;;;;;;5087170;28;20056;-69
2022/03/22 04:02:06;;;;;;;24.77;13.20;;;19.60;56.60;;;;;;5080086;28;20055;-69
2022/03/22 04:04:35;;;;;;;29.63;14.52;;;19.60;56.80;;;;;;5079356;28;20037;-69
2022/03/22 04:07:05;;;;;;;25.45;13.50;;;19.60;56.90;;;;;;5091043;28;20051;-69
2022/03/22 04:09:34;;;;;;;22.30;13.80;;;19.50;57.00;;;;;;5091117;28;20039;-68
2022/03/22 04:12:00;;;;;;;23.85;13.50;;;19.50;57.10;;;;;;5094358;28;20051;-69
2022/03/22 04:14:27;;;;;;;23.40;13.07;;;19.40;57.20;;;;;;5080246;28;20060;-69
2022/03/22 04:16:56;;;;;;;28.83;14.05;;;19.50;57.50;;;;;;5076792;28;20045;-69
2022/03/22 04:19:23;;;;;;;27.58;13.95;;;19.30;57.30;;;;;;5064887;28;20052;-69
2022/03/22 04:21:50;;;;;;;20.08;13.52;;;19.40;57.50;;;;;;5073301;28;20220;-69
2022/03/22 04:24:16;;;;;;;27.13;14.35;;;19.30;57.20;;;;;;5097600;28;20063;-69
2022/03/22 04:26:44;;;;;;;28.67;13.05;;;19.40;57.00;;;;;;5072059;28;20069;-69
2022/03/22 04:35:03;;;;;;;30.25;14.52;;;19.40;57.00;;;;;;5082254;28;20041;-68
2022/03/22 04:37:29;;;;;;;30.17;14.60;;;19.40;57.20;;;;;;5075979;28;20083;-68
2022/03/22 04:39:55;;;;;;;25.13;12.82;;;19.50;57.20;;;;;;5063780;28;20048;-69
2022/03/22 04:42:21;;;;;;;26.20;13.57;;;19.40;57.10;;;;;;5066305;28;20076;-68
2022/03/22 04:44:47;;;;;;;33.45;14.75;;;19.50;57.20;;;;;;5079762;28;20045;-69
2022/03/22 04:47:13;;;;;;;20.92;13.45;;;19.50;57.20;;;;;;5082189;28;20036;-69
2022/03/22 04:49:40;;;;;;;26.00;13.70;;;19.40;57.30;;;;;;5063498;28;20096;-69
2022/03/22 04:57:37;;;;;;;27.27;13.52;;;19.40;56.90;;;;;;5096237;28;20048;-68
2022/03/22 05:00:05;;;;;;;27.02;13.98;;;19.60;56.90;;;;;;5076089;28;20551;-69
2022/03/22 05:02:32;;;;;;;25.35;13.48;;;19.40;56.70;;;;;;5070922;28;20065;-69
2022/03/22 05:05:00;;;;;;;29.92;15.65;;;19.50;56.70;;;;;;5055422;28;20071;-69
2022/03/22 05:07:26;;;;;;;22.88;14.73;;;19.40;56.60;;;;;;5091586;28;20047;-69
2022/03/22 05:09:53;;;;;;;29.25;15.35;;;19.50;56.60;;;;;;5089457;28;20045;-69
2022/03/22 05:12:19;;;;;;;26.40;14.68;;;19.50;56.70;;;;;;5058730;28;20041;-69
2022/03/22 05:14:50;;;;;;;24.65;14.88;;;19.60;56.70;;;;;;5074393;28;20040;-69
2022/03/22 05:17:23;;;;;;;28.02;14.63;;;19.60;56.70;;;;;;5072790;28;20115;-69
2022/03/22 05:19:51;;;;;;;25.38;15.02;;;19.60;56.60;;;;;;5057469;28;20045;-69
2022/03/22 05:22:20;;;;;;;38.45;15.55;;;19.40;56.70;;;;;;5078670;28;20070;-69
2022/03/22 05:24:46;;;;;;;29.77;14.18;;;19.50;56.90;;;;;;5094085;28;20051;-69
2022/03/22 05:27:15;;;;;;;27.35;14.10;;;19.40;57.20;;;;;;5095312;28;20040;-68
2022/03/22 05:29:42;;;;;;;27.25;13.30;;;19.50;57.10;;;;;;5077476;28;20067;-69
2022/03/22 05:32:09;;;;;;;32.70;15.23;;;19.50;57.30;;;;;;5074213;28;20045;-69
2022/03/22 05:34:35;;;;;;;29.60;14.25;;;19.50;57.30;;;;;;5057258;28;20037;-69
2022/03/22 05:37:02;;;;;;;27.33;14.43;;;19.50;57.40;;;;;;5072585;28;20036;-68
2022/03/22 05:39:30;;;;;;;29.30;14.45;;;19.50;57.20;;;;;;5077065;28;20249;-68
2022/03/22 05:41:56;;;;;;;29.35;12.23;;;19.50;57.20;;;;;;5075137;28;20049;-68
2022/03/22 05:44:22;;;;;;;22.38;11.93;;;19.60;57.10;;;;;;5074245;28;20025;-69
2022/03/22 05:46:49;;;;;;;21.85;12.30;;;19.60;56.80;;;;;;5073247;28;20125;-69
2022/03/22 05:49:15;;;;;;;25.52;11.88;;;19.50;56.70;;;;;;5075640;28;20033;-69
2022/03/22 05:51:41;;;;;;;23.00;11.50;;;19.50;56.70;;;;;;5074868;28;20033;-69
2022/03/22 05:54:07;;;;;;;22.98;11.50;;;19.60;56.90;;;;;;5088325;28;20051;-68
2022/03/22 05:56:33;;;;;;;26.10;13.57;;;19.50;57.20;;;;;;5087054;28;20053;-69
2022/03/22 05:58:59;;;;;;;23.45;11.70;;;19.50;57.20;;;;;;5069437;28;20040;-69
2022/03/22 06:01:27;;;;;;;23.42;11.45;;;19.60;57.30;;;;;;5070970;28;20056;-69
2022/03/22 06:03:54;;;;;;;25.83;11.73;;;19.60;57.20;;;;;;5067341;28;20037;-69
2022/03/22 06:06:21;;;;;;;26.80;13.60;;;19.50;57.10;;;;;;5075597;28;20045;-69
2022/03/22 06:08:49;;;;;;;22.48;11.73;;;19.50;57.10;;;;;;5069102;28;20041;-69
2022/03/22 06:11:18;;;;;;;24.02;11.75;;;19.60;57.00;;;;;;5071961;28;20041;-68
2022/03/22 06:13:44;;;;;;;23.70;11.85;;;19.50;56.80;;;;;;5074780;28;20043;-70
2022/03/22 06:16:10;;;;;;;12.77;6.82;;;19.70;56.80;;;;;;5070932;28;20045;-68
2022/03/22 06:18:36;;;;;;;9.95;5.35;;;19.70;46.60;;;;;;5074660;28;20063;-67
2022/03/22 06:21:03;;;;;;;7.20;5.00;;;19.70;43.50;;;;;;5078800;28;20040;-67
2022/03/22 06:23:29;;;;;;;10.48;5.57;;;19.80;42.30;;;;;;5078516;28;20044;-67
2022/03/22 06:25:55;;;;;;;10.48;5.20;;;19.90;42.00;;;;;;5077771;28;20048;-68
2022/03/22 06:28:21;;;;;;;13.65;6.53;;;19.90;41.10;;;;;;5074289;28;20021;-68
2022/03/22 06:30:48;;;;;;;8.73;5.32;;;20.00;39.40;;;;;;5077512;28;20071;-68
2022/03/22 06:33:22;;;;;;;11.50;6.00;;;20.20;40.50;;;;;;5073867;28;20037;-68
2022/03/22 06:35:48;;;;;;;10.70;6.40;;;20.30;38.30;;;;;;5075533;28;20074;-68
2022/03/22 06:38:18;;;;;;;13.50;5.53;;;20.30;38.30;;;;;;5079020;28;20092;-68
2022/03/22 06:40:48;;;;;;;9.18;6.45;;;20.40;40.30;;;;;;5078917;28;20091;-67
2022/03/22 06:43:15;;;;;;;15.00;8.48;;;20.50;38.50;;;;;;5059447;28;20048;-68
2022/03/22 06:45:43;;;;;;;20.30;9.32;;;20.60;39.90;;;;;;5076149;28;20033;-68
2022/03/22 06:48:10;;;;;;;18.95;10.80;;;20.50;39.40;;;;;;5069377;28;20053;-68
2022/03/22 06:50:38;;;;;;;15.43;8.88;;;20.70;38.20;;;;;;5070512;28;20037;-67
2022/03/22 06:53:06;;;;;;;20.60;12.02;;;20.70;39.00;;;;;;5074025;28;20041;-68
2022/03/22 06:55:34;;;;;;;13.63;8.68;;;20.70;38.80;;;;;;5076443;28;20088;-69
2022/03/22 06:58:00;;;;;;;18.40;9.82;;;20.70;38.00;;;;;;5077876;28;20044;-70
2022/03/22 07:00:27;;;;;;;14.20;7.82;;;20.80;36.90;;;;;;5076916;28;20087;-70
2022/03/22 07:02:55;;;;;;;15.63;8.45;;;20.90;51.20;;;;;;5063135;28;20037;-71
2022/03/22 07:05:22;;;;;;;16.42;8.15;;;21.00;51.50;;;;;;5077729;28;20052;-69
2022/03/22 07:07:48;;;;;;;14.80;8.43;;;21.00;55.40;;;;;;5077920;28;20092;-69
2022/03/22 07:10:17;;;;;;;18.48;7.43;;;21.00;55.50;;;;;;5076230;28;20036;-68
2022/03/22 07:12:58;;;;;;;16.73;8.27;;;21.10;55.30;;;;;;5068253;28;20044;-69
2022/03/22 07:15:33;;;;;;;16.40;8.55;;;21.10;54.80;;;;;;5067496;28;20049;-69
2022/03/22 07:18:03;;;;;;;12.63;8.30;;;21.10;54.20;;;;;;5097284;28;20049;-67
2022/03/22 07:20:31;;;;;;;16.15;8.23;;;21.10;54.70;;;;;;5069247;28;20049;-68
2022/03/22 07:22:58;;;;;;;17.30;8.80;;;21.00;54.60;;;;;;5074997;28;20045;-68
2022/03/22 07:25:24;;;;;;;13.20;7.85;;;21.20;55.10;;;;;;5080703;28;20029;-68
2022/03/22 07:27:51;;;;;;;14.88;8.38;;;21.20;54.50;;;;;;5075369;28;20033;-68
2022/03/22 07:30:18;;;;;;;12.90;6.45;;;21.10;54.90;;;;;;5081424;28;20072;-68
2022/03/22 07:32:45;;;;;;;14.43;8.23;;;21.20;55.60;;;;;;5092652;28;20038;-69
2022/03/22 07:35:13;;;;;;;12.13;7.07;;;21.20;54.80;;;;;;5080324;28;20040;-70
2022/03/22 07:37:39;;;;;;;12.75;7.47;;;21.20;56.70;;;;;;5069587;28;20067;-70
2022/03/22 07:40:10;;;;;;;9.55;5.35;;;21.20;56.10;;;;;;5087127;28;20068;-69
2022/03/22 07:42:37;;;;;;;16.83;8.07;;;21.20;56.20;;;;;;5090834;28;20044;-68
2022/03/22 07:45:06;;;;;;;17.00;7.07;;;21.10;56.80;;;;;;5093960;28;20036;-69
2022/03/22 07:47:33;;;;;;;15.30;7.45;;;21.20;56.30;;;;;;5074323;28;20036;-69
2022/03/22 07:53:01;;;;;;;18.38;6.55;;;21.20;55.50;;;;;;5069135;28;20044;-69
2022/03/22 07:55:30;;;;;;;12.15;6.13;;;21.20;56.10;;;;;;5073859;28;20049;-69
2022/03/22 07:57:57;;;;;;;15.35;8.25;;;21.30;56.00;;;;;;5072636;28;20059;-70
2022/03/22 08:00:30;;;;;;;14.70;8.15;;;21.40;54.90;;;;;;5072490;28;20079;-70
2022/03/22 08:02:57;;;;;;;;;;;21.20;55.80;;;;;;5058075;28;20071;-70
2022/03/22 08:05:24;;;;;;;9.23;6.75;;;21.40;51.10;;;;;;5057333;28;19909;-70
2022/03/22 08:07:51;;;;;;;14.50;7.47;;;21.30;55.10;;;;;;5056511;28;20033;-69
2022/03/22 08:10:18;;;;;;;13.65;7.18;;;21.30;53.20;;;;;;5069434;28;20041;-69
2022/03/22 08:12:44;;;;;;;18.35;8.10;;;21.40;54.50;;;;;;5063736;28;20037;-69
2022/03/22 08:15:11;;;;;;;11.02;6.75;;;21.40;54.50;;;;;;5059574;28;20462;-68
2022/03/22 08:17:39;;;;;;;18.92;8.57;;;21.50;54.70;;;;;;5057608;28;20124;-69
2022/03/22 08:20:07;;;;;;;21.85;7.80;;;21.40;54.30;;;;;;5039834;28;20531;-69
2022/03/22 08:22:55;;;;;;;7.68;3.72;;;21.40;54.20;;;;;;5070818;28;20037;-68
2022/03/22 08:25:33;;;;;;;8.05;3.95;;;21.50;48.40;;;;;;5069079;28;20033;-68
2022/03/22 08:28:02;;;;;;;7.57;2.47;;;21.40;42.50;;;;;;5073563;28;20033;-69
2022/03/22 08:30:30;;;;;;;3.17;2.45;;;21.50;43.00;;;;;;5070565;28;20049;-67
2022/03/22 08:33:03;;;;;;;3.67;1.95;;;21.60;54.80;;;;;;5072098;28;20067;-69
2022/03/22 08:35:30;;;;;;;3.92;1.80;;;21.80;55.90;;;;;;5070684;28;20047;-70
2022/03/22 08:37:56;;;;;;;2.35;1.88;;;21.90;54.40;;;;;;5075174;28;20048;-71
2022/03/22 08:40:23;;;;;;;1.48;1.20;;;21.80;52.60;;;;;;5075636;28;20025;-71
2022/03/22 08:42:52;;;;;;;5.63;2.55;;;21.90;50.70;;;;;;5075581;28;20050;-70
2022/03/22 08:45:20;;;;;;;7.90;3.88;;;21.80;49.30;;;;;;5073859;28;20033;-72
2022/03/22 08:47:47;;;;;;;4.35;3.10;;;21.80;47.60;;;;;;5073039;28;20055;-70
2022/03/22 08:50:18;;;;;;;5.18;1.88;;;21.70;47.80;;;;;;5074954;28;20100;-69
2022/03/22 08:52:47;;;;;;;3.78;3.15;;;21.70;46.40;;;;;;5068309;28;20066;-71
2022/03/22 08:55:17;;;;;;;6.03;3.47;;;21.70;46.40;;;;;;5060603;28;20052;-71
2022/03/22 08:57:46;;;;;;;3.95;1.88;;;21.70;46.30;;;;;;5075348;28;20040;-71
2022/03/22 09:00:13;;;;;;;2.53;2.17;;;21.70;43.70;;;;;;5075686;28;20056;-70
2022/03/22 09:02:41;;;;;;;9.50;2.38;;;21.60;44.20;;;;;;5072913;28;20044;-70
2022/03/22 09:07:56;;;;;;;9.40;5.72;;;21.70;46.00;;;;;;5059481;28;20049;-73
2022/03/22 09:10:23;;;;;;;12.07;6.93;;;21.70;45.50;;;;;;5071586;28;20063;-69
2022/03/22 09:12:49;;;;;;;12.02;5.22;;;21.60;42.30;;;;;;5073501;28;20037;-68
2022/03/22 09:15:16;;;;;;;10.23;5.55;;;21.70;43.50;;;;;;5074900;28;20033;-69
2022/03/22 09:17:43;;;;;;;11.18;5.82;;;21.60;42.70;;;;;;5058324;28;20042;-68
2022/03/22 09:20:13;;;;;;;8.43;4.65;;;21.60;43.30;;;;;;5063101;28;20040;-69
2022/03/22 09:22:43;;;;;;;9.02;5.03;;;21.60;43.80;;;;;;5059789;28;20074;-69
2022/03/22 09:25:11;;;;;;;7.07;4.90;;;21.70;42.30;;;;;;5055757;28;20211;-69
2022/03/22 09:27:38;;;;;;;10.90;5.63;;;21.60;44.60;;;;;;5055539;28;20037;-69
2022/03/22 09:30:06;;;;;;;8.00;4.72;;;21.60;44.30;;;;;;5056579;28;20040;-68
2022/03/22 09:32:35;;;;;;;7.72;3.80;;;21.60;41.80;;;;;;5052573;28;20112;-69
2022/03/22 09:35:01;;;;;;;5.57;3.95;;;21.70;36.10;;;;;;5075763;28;20045;-69
2022/03/22 09:37:27;;;;;;;5.35;3.17;;;21.80;42.70;;;;;;5075916;28;20056;-69
2022/03/22 09:39:56;;;;;;;8.90;3.97;;;21.80;45.40;;;;;;5075855;28;20041;-70
2022/03/22 09:42:23;;;;;;;8.30;4.47;;;21.80;46.80;;;;;;5056419;28;20046;-69
2022/03/22 09:44:51;;;;;;;7.95;4.55;;;21.90;48.00;;;;;;5055504;28;20104;-69
2022/03/22 09:47:17;;;;;;;8.68;3.70;;;21.80;47.50;;;;;;5058886;28;20041;-69
2022/03/22 09:49:44;;;;;;;6.43;2.97;;;21.80;47.40;;;;;;5068157;28;20052;-69
2022/03/22 09:52:11;;;;;;;8.73;3.72;;;21.90;49.40;;;;;;5073833;28;20041;-69
2022/03/22 09:54:39;;;;;;;6.35;3.33;;;21.90;49.50;;;;;;5076116;28;20045;-69
2022/03/22 09:57:05;;;;;;;8.38;4.07;;;21.90;48.80;;;;;;5079646;28;20040;-69
2022/03/22 09:59:36;;;;;;;7.75;3.88;;;22.00;50.50;;;;;;5079531;28;20037;-69
2022/03/22 10:02:04;;;;;;;12.18;3.92;;;22.00;50.70;;;;;;5076655;28;20053;-69
2022/03/22 10:04:42;;;;;;;14.35;4.75;;;21.90;52.00;;;;;;5059449;28;20038;-69
2022/03/22 10:07:17;;;;;;;3.95;2.58;;;22.00;51.50;;;;;;5059428;28;20042;-69
2022/03/22 10:10:02;;;;;;;5.47;3.55;;;22.00;52.50;;;;;;5058860;28;20033;-69
2022/03/22 10:12:34;;;;;;;7.57;3.67;;;22.00;53.40;;;;;;5059812;28;20033;-69
2022/03/22 10:15:10;;;;;;;5.85;3.15;;;21.90;51.20;;;;;;5072897;28;20044;-68
2022/03/22 10:17:37;;;;;;;7.07;3.65;;;22.00;50.90;;;;;;5074556;28;20041;-69
2022/03/22 10:20:05;;;;;;;7.80;3.63;;;22.00;49.40;;;;;;5059585;28;20045;-69
2022/03/22 10:22:33;;;;;;;7.47;4.20;;;22.00;51.70;;;;;;5059368;28;20103;-69
2022/03/22 10:25:02;;;;;;;7.25;4.32;;;22.00;51.80;;;;;;5059308;28;20065;-69
2022/03/22 10:27:36;;;;;;;8.23;3.53;;;22.00;51.50;;;;;;5062417;28;20060;-68
2022/03/22 10:30:06;;;;;;;8.07;3.58;;;22.00;50.90;;;;;;5078616;28;20064;-69
2022/03/22 10:32:51;;;;;;;5.60;3.42;;;22.10;48.00;;;;;;5076573;28;20060;-69
2022/03/22 10:35:23;;;;;;;8.30;3.22;;;21.90;45.60;;;;;;5077255;28;20132;-68
2022/03/22 10:38:08;;;;;;;6.68;3.13;;;21.90;49.50;;;;;;5078555;28;20052;-69
2022/03/22 10:40:45;;;;;;;3.40;2.42;;;22.10;49.40;;;;;;5078948;28;20587;-69
2022/03/22 10:43:11;;;;;;;5.75;3.05;;;22.00;49.90;;;;;;5077439;28;20041;-69
2022/03/22 10:45:45;;;;;;;4.65;3.05;;;22.00;49.90;;;;;;5077793;28;20044;-69
2022/03/22 10:48:28;;;;;;;5.43;3.15;;;22.10;49.40;;;;;;5073442;28;20096;-68
2022/03/22 10:50:59;;;;;;;10.13;3.00;;;22.10;50.80;;;;;;5078466;28;20068;-69
2022/03/22 10:53:27;;;;;;;5.88;3.35;;;22.20;51.50;;;;;;5081038;28;20045;-69
2022/03/22 10:55:54;;;;;;;12.07;3.72;;;22.20;41.00;;;;;;5078964;28;20041;-68
2022/03/22 10:58:25;;;;;;;9.20;4.20;;;22.20;46.00;;;;;;5077687;28;20021;-68
2022/03/22 11:00:52;;;;;;;5.35;2.67;;;22.30;45.40;;;;;;5067888;28;20079;-67
2022/03/22 11:03:20;;;;;;;4.65;3.38;;;22.40;35.50;;;;;;5074189;28;20071;-67
2022/03/22 11:05:50;;;;;;;3.28;2.22;;;22.40;34.30;;;;;;5077018;28;20093;-68
2022/03/22 11:08:20;;;;;;;5.53;3.20;;;22.30;34.60;;;;;;5066472;28;20049;-68
2022/03/22 11:10:48;;;;;;;4.47;2.35;;;22.20;33.90;;;;;;5077189;28;20037;-68
2022/03/22 11:13:15;;;;;;;7.13;3.28;;;22.20;34.10;;;;;;5078080;28;20041;-68
2022/03/22 11:15:46;;;;;;;9.30;2.25;;;22.10;32.90;;;;;;5073086;28;20060;-68
2022/03/22 11:18:14;;;;;;;6.05;2.80;;;22.10;31.90;;;;;;5074261;28;20109;-69
2022/03/22 11:20:58;;;;;;;5.20;2.35;;;22.20;32.30;;;;;;5077230;28;20116;-68
2022/03/22 11:23:27;;;;;;;6.88;2.72;;;22.10;32.80;;;;;;5077111;28;20144;-68
2022/03/22 11:26:16;;;;;;;4.22;2.45;;;22.00;32.80;;;;;;5074137;28;20036;-69
2022/03/22 11:28:45;;;;;;;4.38;3.17;;;22.10;31.70;;;;;;5057880;28;20052;-68
2022/03/22 11:31:16;;;;;;;3.95;2.17;;;22.10;31.80;;;;;;5076815;28;20045;-68
2022/03/22 11:36:49;;;;;;;5.15;2.50;;;22.10;32.40;;;;;;5077255;28;20033;-69
2022/03/22 11:42:15;;;;;;;3.80;2.08;;;22.00;45.90;;;;;;5076072;28;20033;-69
2022/03/22 11:42:20;;;;;;;10.27;3.08;;;22.20;48.60;;;;;;5057927;28;20045;-68
2022/03/22 11:45:11;;;;;;;3.83;2.47;;;22.20;49.70;;;;;;5063909;28;20049;-69
2022/03/22 11:47:40;;;;;;;5.53;2.95;;;22.10;50.80;;;;;;5057858;28;20041;-68
2022/03/22 11:50:10;;;;;;;5.55;2.72;;;22.10;50.70;;;;;;5063549;28;20041;-69
2022/03/22 11:52:42;;;;;;;5.53;2.50;;;22.10;51.10;;;;;;5075414;28;20055;-68
2022/03/22 11:55:12;;;;;;;2.22;1.88;;;22.20;52.20;;;;;;5076644;28;20131;-68
2022/03/22 11:58:05;;;;;;;3.03;2.05;;;22.20;52.60;;;;;;5073828;28;20088;-69
2022/03/22 12:00:55;;;;;;;7.68;2.72;;;22.00;52.30;;;;;;5076385;28;20053;-68
2022/03/22 12:03:28;;;;;;;10.00;2.45;;;22.20;52.50;;;;;;5077553;28;20079;-68
2022/03/22 12:05:54;;;;;;;5.28;2.80;;;22.00;53.00;;;;;;5075460;28;20067;-68
2022/03/22 12:08:20;;;;;;;8.82;2.40;;;22.20;52.80;;;;;;5075583;28;20033;-69
2022/03/22 12:10:52;;;;;;;7.32;3.00;;;22.20;53.80;;;;;;5076191;28;20048;-68
2022/03/22 12:15:57;;;;;;;6.30;2.28;;;22.20;53.00;;;;;;5026492;28;20062;-68
2022/03/22 12:18:31;;;;;;;4.80;2.47;;;22.20;52.70;;;;;;4989647;28;20072;-68
2022/03/22 12:20:57;;;;;;;1.92;1.20;;;22.20;52.50;;;;;;4995804;28;20051;-68
2022/03/22 12:23:24;;;;;;;5.20;2.38;;;22.20;52.00;;;;;;4997596;28;20050;-68
2022/03/22 12:25:51;;;;;;;7.28;4.10;;;22.20;51.90;;;;;;4998233;28;20034;-69
2022/03/22 12:28:18;;;;;;;5.70;3.15;;;22.20;48.80;;;;;;4998815;28;20039;-68
2022/03/22 12:30:45;;;;;;;5.38;2.80;;;22.10;51.40;;;;;;4994830;28;20034;-69
2022/03/22 12:33:14;;;;;;;6.22;3.13;;;22.10;51.50;;;;;;4997575;28;20050;-69
2022/03/22 12:35:42;;;;;;;6.68;3.80;;;22.10;54.10;;;;;;4997275;28;20046;-69
2022/03/22 12:38:09;;;;;;;6.53;3.47;;;22.20;56.50;;;;;;5010910;28;20831;-69
2022/03/22 12:40:36;;;;;;;6.03;3.13;;;22.20;57.80;;;;;;4997471;28;20073;-71
2022/03/22 12:43:06;;;;;;;4.65;2.80;;;22.30;57.80;;;;;;4990005;28;20091;-69
2022/03/22 12:45:32;;;;;;;5.45;2.28;;;22.20;56.20;;;;;;4998005;28;20038;-69
2022/03/22 12:48:00;;;;;;;1.55;1.23;;;22.20;55.30;;;;;;4997276;28;20034;-69
2022/03/22 12:50:29;;;;;;;3.35;2.00;;;22.20;54.80;;;;;;4996988;28;20041;-69
2022/03/22 12:52:56;;;;;;;2.00;1.15;;;22.20;54.50;;;;;;4997257;28;20051;-69
2022/03/22 12:55:23;;;;;;;3.28;2.05;;;22.30;54.20;;;;;;4995172;28;20053;-69
2022/03/22 12:57:56;;;;;;;5.53;1.70;;;22.10;53.80;;;;;;4995489;28;20089;-69
2022/03/22 13:00:32;;;;;;;5.28;2.55;;;22.10;53.60;;;;;;4995828;28;20062;-69
2022/03/22 13:03:11;;;;;;;4.50;2.55;;;22.20;53.00;;;;;;4995868;28;20042;-69
2022/03/22 13:05:43;;;;;;;6.25;2.00;;;22.10;53.40;;;;;;4983991;28;20055;-69
2022/03/22 13:08:20;;;;;;;5.07;2.72;;;22.10;52.70;;;;;;4996985;28;20081;-69
2022/03/22 13:16:24;;;;;;;4.95;2.30;;;22.10;53.00;;;;;;4995676;28;20051;-69
2022/03/22 13:18:54;;;;;;;5.22;1.33;;;22.10;52.80;;;;;;4996968;28;20042;-69
2022/03/22 13:21:23;;;;;;;4.88;2.50;;;22.10;52.70;;;;;;5012348;28;20050;-68